createdAt,value
2018-05-24T00:01:41.628Z,15.90
2018-05-24T00:04:08.356Z,14.47
2018-05-24T00:06:35.089Z,15.23
2018-05-24T00:09:01.812Z,15.87
2018-05-24T00:11:28.540Z,15.50
2018-05-24T00:13:55.276Z,15.83
2018-05-24T00:16:22.076Z,15.23
2018-05-24T00:18:48.819Z,12.63
2018-05-24T00:21:15.588Z,10.40
2018-05-24T00:23:42.314Z,10.03
2018-05-24T00:26:09.037Z,9.70
2018-05-24T00:28:35.771Z,9.00
2018-05-24T00:31:02.497Z,9.23
2018-05-24T00:33:29.268Z,9.33
2018-05-24T00:35:55.996Z,8.40
2018-05-24T00:38:22.712Z,8.40
2018-05-24T00:40:49.476Z,9.07
2018-05-24T00:43:16.212Z,9.23
2018-05-24T00:45:42.962Z,8.83
2018-05-24T00:48:09.704Z,9.13
2018-05-24T00:50:36.439Z,11.10
2018-05-24T00:53:03.163Z,11.50
2018-05-24T00:55:35.743Z,11.60
2018-05-24T00:58:02.790Z,11.00
2018-05-24T01:00:29.515Z,12.40
2018-05-24T01:02:56.251Z,12.70
2018-05-24T01:05:22.976Z,11.10
2018-05-24T01:07:50.199Z,11.80
2018-05-24T01:10:17.118Z,10.03
2018-05-24T01:12:43.831Z,9.80
2018-05-24T01:15:10.555Z,9.70
2018-05-24T01:17:37.291Z,8.27
2018-05-24T01:20:04.013Z,8.37
2018-05-24T01:22:30.729Z,7.50
2018-05-24T01:24:57.458Z,7.60
2018-05-24T01:27:24.171Z,7.90
2018-05-24T01:29:50.938Z,7.83
2018-05-24T01:32:17.681Z,8.00
2018-05-24T01:34:44.399Z,7.20
2018-05-24T01:37:16.948Z,7.10
2018-05-24T01:39:43.668Z,7.83
2018-05-24T01:42:10.441Z,7.20
2018-05-24T01:44:37.218Z,7.50
2018-05-24T01:47:03.941Z,7.53
2018-05-24T01:49:30.701Z,6.70
2018-05-24T01:51:57.449Z,6.50
2018-05-24T01:54:24.176Z,6.73
2018-05-24T01:56:50.889Z,6.37
2018-05-24T01:59:17.616Z,6.97
2018-05-24T02:01:44.328Z,6.13
2018-05-24T02:04:11.045Z,5.73
2018-05-24T02:06:37.773Z,6.87
2018-05-24T02:09:05.217Z,6.60
2018-05-24T02:11:31.936Z,6.90
2018-05-24T02:13:58.664Z,6.33
2018-05-24T02:16:25.383Z,6.63
2018-05-24T02:18:52.192Z,6.40
2018-05-24T02:21:18.947Z,6.90
2018-05-24T02:23:45.660Z,6.30
2018-05-24T02:26:12.378Z,6.30
2018-05-24T02:28:39.100Z,6.63
2018-05-24T02:31:05.908Z,6.43
2018-05-24T02:33:32.615Z,6.23
2018-05-24T02:35:59.550Z,5.70
2018-05-24T02:38:26.087Z,6.47
2018-05-24T02:40:52.811Z,6.50
2018-05-24T02:43:19.543Z,6.23
2018-05-24T02:45:46.503Z,6.17
2018-05-24T02:48:13.215Z,7.03
2018-05-24T02:50:39.956Z,6.67
2018-05-24T02:53:06.759Z,6.80
2018-05-24T02:55:33.474Z,5.97
2018-05-24T02:58:01.050Z,6.73
2018-05-24T03:00:27.800Z,5.67
2018-05-24T03:02:54.539Z,6.33
2018-05-24T03:05:21.327Z,6.47
2018-05-24T03:07:48.808Z,6.00
2018-05-24T03:10:15.525Z,6.63
2018-05-24T03:12:42.331Z,7.20
2018-05-24T03:15:09.066Z,6.53
2018-05-24T03:17:35.797Z,6.10
2018-05-24T03:20:02.527Z,6.30
2018-05-24T03:22:29.252Z,6.40
2018-05-24T03:24:55.968Z,6.00
2018-05-24T03:27:22.762Z,6.30
2018-05-24T03:29:49.518Z,6.20
2018-05-24T03:32:16.236Z,6.70
2018-05-24T03:34:42.960Z,6.30
2018-05-24T03:37:09.753Z,7.20
2018-05-24T03:39:36.476Z,6.70
2018-05-24T03:42:03.212Z,7.00
2018-05-24T03:44:29.939Z,6.93
2018-05-24T03:46:56.661Z,7.27
2018-05-24T03:49:23.403Z,7.00
2018-05-24T03:51:50.125Z,6.87
2018-05-24T03:54:16.859Z,7.80
2018-05-24T03:56:43.645Z,7.20
2018-05-24T03:59:26.979Z,8.00
2018-05-24T04:02:00.382Z,6.77
2018-05-24T04:04:33.167Z,7.10
2018-05-24T04:06:59.903Z,8.40
2018-05-24T04:09:26.614Z,7.87
2018-05-24T04:11:53.423Z,8.03
2018-05-24T04:14:20.116Z,8.63
2018-05-24T04:16:46.834Z,7.90
2018-05-24T04:19:13.600Z,8.00
2018-05-24T04:21:40.436Z,7.07
2018-05-24T04:24:07.156Z,8.00
2018-05-24T04:26:33.868Z,7.40
2018-05-24T04:29:00.616Z,7.97
2018-05-24T04:31:27.364Z,8.40
2018-05-24T04:33:54.076Z,8.10
2018-05-24T04:36:20.876Z,8.00
2018-05-24T04:38:47.597Z,7.77
2018-05-24T04:41:14.315Z,8.60
2018-05-24T04:43:41.051Z,8.50
2018-05-24T04:46:07.775Z,8.23
2018-05-24T04:48:34.585Z,8.77
2018-05-24T04:51:01.436Z,8.23
2018-05-24T04:53:28.157Z,8.33
2018-05-24T04:55:54.966Z,9.57
2018-05-24T04:58:21.749Z,8.90
2018-05-24T05:00:48.483Z,9.00
2018-05-24T05:03:15.225Z,9.43
2018-05-24T05:05:41.974Z,9.53
2018-05-24T05:08:08.707Z,8.90
2018-05-24T05:10:35.461Z,8.93
2018-05-24T05:13:02.219Z,10.17
2018-05-24T05:15:28.980Z,8.63
2018-05-24T05:17:55.776Z,9.53
2018-05-24T05:20:22.613Z,8.60
2018-05-24T05:22:49.336Z,8.77
2018-05-24T05:25:16.140Z,8.37
2018-05-24T05:27:42.802Z,9.67
2018-05-24T05:30:10.140Z,9.00
2018-05-24T05:32:36.870Z,8.70
2018-05-24T05:35:03.672Z,10.00
2018-05-24T05:37:30.439Z,10.60
2018-05-24T05:39:57.128Z,8.83
2018-05-24T05:42:23.896Z,9.27
2018-05-24T05:44:50.673Z,9.50
2018-05-24T05:47:17.363Z,9.73
2018-05-24T05:49:44.108Z,9.13
2018-05-24T05:52:10.927Z,10.50
2018-05-24T05:54:37.600Z,8.90
2018-05-24T05:57:04.443Z,10.10
2018-05-24T05:59:31.197Z,10.80
2018-05-24T06:01:57.948Z,10.53
2018-05-24T06:04:24.673Z,12.10
2018-05-24T06:06:51.499Z,11.23
2018-05-24T06:09:18.241Z,10.30
2018-05-24T06:11:45.083Z,11.00
2018-05-24T06:14:11.847Z,11.47
2018-05-24T06:16:38.573Z,11.63
2018-05-24T06:19:05.303Z,12.93
2018-05-24T06:21:32.129Z,11.70
2018-05-24T06:23:58.887Z,11.47
2018-05-24T06:26:25.681Z,11.80
2018-05-24T06:28:52.376Z,11.10
2018-05-24T06:31:19.204Z,11.70
2018-05-24T06:33:45.957Z,12.70
2018-05-24T06:36:12.687Z,12.50
2018-05-24T06:38:39.431Z,12.97
2018-05-24T06:41:06.276Z,13.10
2018-05-24T06:43:33.116Z,12.90
2018-05-24T06:45:59.930Z,13.67
2018-05-24T06:48:26.668Z,12.40
2018-05-24T06:50:53.814Z,12.23
2018-05-24T06:53:20.543Z,13.00
2018-05-24T06:55:47.283Z,13.33
2018-05-24T06:58:14.023Z,12.53
2018-05-24T07:00:40.813Z,13.30
2018-05-24T07:03:07.651Z,13.20
2018-05-24T07:05:34.373Z,14.87
2018-05-24T07:08:01.101Z,13.67
2018-05-24T07:10:27.869Z,13.37
2018-05-24T07:12:54.592Z,12.40
2018-05-24T07:15:21.353Z,11.93
2018-05-24T07:17:48.201Z,11.53
2018-05-24T07:20:14.919Z,12.40
2018-05-24T07:22:41.649Z,11.80
2018-05-24T07:25:08.379Z,11.00
2018-05-24T07:27:35.153Z,12.80
2018-05-24T07:30:01.872Z,12.20
2018-05-24T07:32:28.611Z,12.33
2018-05-24T07:34:55.370Z,11.30
2018-05-24T07:37:22.100Z,12.30
2018-05-24T07:39:48.955Z,12.60
2018-05-24T07:42:15.582Z,12.37
2018-05-24T07:44:42.345Z,14.30
2018-05-24T07:47:09.079Z,13.93
2018-05-24T07:49:35.814Z,14.10
2018-05-24T07:52:02.548Z,15.60
2018-05-24T07:54:29.286Z,13.73
2018-05-24T07:56:56.011Z,14.90
2018-05-24T07:59:22.787Z,14.10
2018-05-24T08:01:49.620Z,15.10
2018-05-24T08:04:16.345Z,13.60
2018-05-24T08:06:43.072Z,14.13
2018-05-24T08:09:09.852Z,14.17
2018-05-24T08:11:36.578Z,14.43
2018-05-24T08:14:03.308Z,14.77
2018-05-24T08:16:30.037Z,14.80
2018-05-24T08:18:56.763Z,12.30
2018-05-24T08:21:23.499Z,13.10
2018-05-24T08:23:50.239Z,14.50
2018-05-24T08:26:16.963Z,14.70
2018-05-24T08:28:43.693Z,13.57
2018-05-24T08:31:10.515Z,14.63
2018-05-24T08:33:37.237Z,13.70
2018-05-24T08:36:03.957Z,13.80
2018-05-24T08:38:30.807Z,14.43
2018-05-24T08:40:57.600Z,14.07
2018-05-24T08:43:24.264Z,13.77
2018-05-24T08:45:51.012Z,14.27
2018-05-24T08:48:17.728Z,13.90
2018-05-24T08:50:44.540Z,15.17
2018-05-24T08:53:11.384Z,14.43
2018-05-24T08:55:38.110Z,14.30
2018-05-24T08:58:04.826Z,15.20
2018-05-24T09:00:31.600Z,14.30
2018-05-24T09:02:58.319Z,13.07
2018-05-24T09:05:25.079Z,12.77
2018-05-24T09:07:52.876Z,15.90
2018-05-24T09:10:19.599Z,16.10
2018-05-24T09:12:46.322Z,15.37
2018-05-24T09:15:13.165Z,14.57
2018-05-24T09:17:40.008Z,15.50
2018-05-24T09:20:06.779Z,14.63
2018-05-24T09:22:33.483Z,14.90
2018-05-24T09:25:00.204Z,14.80
2018-05-24T09:27:26.927Z,13.90
2018-05-24T09:29:53.729Z,13.23
2018-05-24T09:32:20.553Z,13.33
2018-05-24T09:34:47.281Z,14.90
2018-05-24T09:37:14.019Z,15.17
2018-05-24T09:39:40.772Z,17.07
2018-05-24T09:42:07.568Z,16.30
2018-05-24T09:44:34.246Z,16.90
2018-05-24T09:47:00.981Z,16.10
2018-05-24T09:49:27.724Z,16.40
2018-05-24T09:51:54.476Z,15.20
2018-05-24T09:54:21.212Z,17.20
2018-05-24T09:56:47.937Z,16.17
2018-05-24T09:59:14.690Z,16.23
2018-05-24T10:01:41.414Z,14.80
2018-05-24T10:04:08.140Z,14.07
2018-05-24T10:06:34.876Z,14.20
2018-05-24T10:09:01.599Z,11.40
2018-05-24T10:11:28.439Z,13.30
2018-05-24T10:13:55.259Z,12.00
2018-05-24T10:16:22.005Z,14.10
2018-05-24T10:18:48.826Z,11.20
2018-05-24T10:21:15.661Z,10.40
2018-05-24T10:23:42.379Z,12.07
2018-05-24T10:26:09.103Z,11.60
2018-05-24T10:28:35.845Z,12.23
2018-05-24T10:31:02.589Z,10.20
2018-05-24T10:33:29.306Z,9.27
2018-05-24T10:35:56.052Z,9.70
2018-05-24T10:38:22.837Z,7.23
2018-05-24T10:40:49.549Z,7.03
2018-05-24T10:43:16.316Z,7.40
2018-05-24T10:45:43.036Z,8.07
2018-05-24T10:48:09.756Z,8.53
2018-05-24T10:50:36.497Z,10.23
2018-05-24T10:53:03.284Z,10.37
2018-05-24T10:55:30.002Z,12.20
2018-05-24T10:57:56.764Z,11.60
2018-05-24T11:00:23.495Z,10.20
2018-05-24T11:02:50.231Z,11.20
2018-05-24T11:05:16.956Z,8.60
2018-05-24T11:07:43.676Z,8.67
2018-05-24T11:10:10.396Z,9.90
2018-05-24T11:12:37.132Z,9.03
2018-05-24T11:15:03.842Z,7.00
2018-05-24T11:17:30.570Z,10.80
2018-05-24T11:19:57.316Z,10.60
2018-05-24T11:22:24.035Z,10.00
2018-05-24T11:24:50.763Z,11.67
2018-05-24T11:27:17.555Z,10.80
2018-05-24T11:29:44.281Z,11.07
2018-05-24T11:32:10.998Z,8.43
2018-05-24T11:34:37.737Z,8.40
2018-05-24T11:37:04.565Z,7.90
2018-05-24T11:39:31.190Z,6.97
2018-05-24T11:41:57.915Z,6.83
2018-05-24T11:44:24.630Z,8.30
2018-05-24T11:46:51.358Z,9.00
2018-05-24T11:49:18.082Z,6.30
2018-05-24T11:51:44.840Z,6.60
2018-05-24T11:54:11.576Z,9.60
2018-05-24T11:56:38.320Z,7.53
2018-05-24T11:59:05.194Z,8.90
2018-05-24T12:01:32.028Z,8.57
2018-05-24T12:03:58.761Z,7.20
2018-05-24T12:06:25.483Z,6.83
2018-05-24T12:08:52.237Z,9.90
2018-05-24T12:11:19.071Z,9.90
2018-05-24T12:13:45.787Z,7.97
2018-05-24T12:16:12.549Z,9.00
2018-05-24T12:18:39.321Z,8.93
2018-05-24T12:21:06.045Z,9.40
2018-05-24T12:23:33.022Z,10.67
2018-05-24T12:25:59.759Z,10.77
2018-05-24T12:28:26.991Z,10.57
2018-05-24T12:30:53.721Z,10.30
2018-05-24T12:33:20.463Z,10.10
2018-05-24T12:35:47.180Z,11.30
2018-05-24T12:38:13.908Z,10.60
2018-05-24T12:40:40.635Z,9.47
2018-05-24T12:43:07.354Z,8.43
2018-05-24T12:45:34.156Z,8.87
2018-05-24T12:48:00.897Z,9.13
2018-05-24T12:50:27.618Z,8.03
2018-05-24T12:52:54.368Z,6.70
2018-05-24T12:55:21.820Z,8.97
2018-05-24T12:57:48.619Z,12.00
2018-05-24T13:00:15.304Z,12.50
2018-05-24T13:02:42.052Z,11.13
2018-05-24T13:05:08.896Z,13.87
2018-05-24T13:07:36.683Z,12.80
2018-05-24T13:10:03.456Z,15.50
2018-05-24T13:12:30.180Z,13.47
2018-05-24T13:14:56.911Z,15.57
2018-05-24T13:17:23.644Z,14.80
2018-05-24T13:19:50.561Z,15.37
2018-05-24T13:22:17.291Z,13.80
2018-05-24T13:24:44.031Z,13.07
2018-05-24T13:27:10.787Z,13.30
2018-05-24T13:29:37.611Z,13.50
2018-05-24T13:32:04.347Z,14.50
2018-05-24T13:34:31.122Z,14.43
2018-05-24T13:36:57.947Z,14.40
2018-05-24T13:39:24.703Z,13.90
2018-05-24T13:41:51.535Z,13.53
2018-05-24T13:44:18.267Z,14.00
2018-05-24T13:46:45.002Z,14.27
2018-05-24T13:49:11.721Z,13.10
2018-05-24T13:51:38.499Z,13.87
2018-05-24T13:54:05.244Z,15.17
2018-05-24T13:56:31.972Z,12.80
2018-05-24T13:58:58.700Z,12.23
2018-05-24T14:01:25.439Z,11.50
2018-05-24T14:03:52.234Z,9.43
2018-05-24T14:06:19.041Z,9.97
2018-05-24T14:08:45.918Z,9.87
2018-05-24T14:11:12.615Z,9.17
2018-05-24T14:13:39.334Z,8.83
2018-05-24T14:16:06.064Z,8.10
2018-05-24T14:18:32.781Z,8.20
2018-05-24T14:20:59.956Z,8.10
2018-05-24T14:23:26.691Z,8.30
2018-05-24T14:25:53.613Z,8.47
2018-05-24T14:28:20.387Z,8.60
2018-05-24T14:30:47.159Z,9.00
2018-05-24T14:33:13.871Z,8.47
2018-05-24T14:35:40.647Z,8.57
2018-05-24T14:38:07.475Z,13.97
2018-05-24T14:40:34.243Z,11.07
2018-05-24T14:43:00.959Z,8.13
2018-05-24T14:45:27.689Z,6.73
2018-05-24T14:47:57.299Z,26.53
2018-05-24T14:50:24.048Z,7.53
2018-05-24T14:52:51.605Z,7.40
2018-05-24T19:47:59.136Z,10.32
2018-05-24T19:50:26.118Z,9.87
2018-05-24T19:52:52.895Z,9.97
2018-05-24T19:55:19.665Z,9.80
2018-05-24T19:57:46.392Z,10.47
2018-05-24T20:00:13.149Z,19.77
2018-05-24T20:02:39.872Z,23.33
2018-05-24T20:05:06.597Z,30.90
2018-05-24T20:07:33.707Z,35.47
2018-05-24T20:10:01.280Z,12.03
2018-05-24T20:12:28.086Z,11.20
2018-05-24T20:14:54.827Z,11.37
2018-05-24T20:17:21.585Z,11.47
2018-05-24T20:19:48.405Z,19.20
2018-05-24T20:22:15.152Z,21.27
2018-05-24T20:24:42.014Z,12.60
2018-05-24T20:27:08.731Z,14.83
2018-05-24T20:29:35.481Z,13.73
2018-05-24T20:32:02.312Z,11.40
2018-05-24T20:34:29.036Z,16.30
2018-05-24T20:36:55.778Z,14.17
2018-05-24T20:39:22.546Z,13.13
2018-05-24T20:41:49.275Z,12.43
2018-05-24T20:44:16.012Z,11.93
2018-05-24T20:46:42.738Z,11.87
2018-05-24T20:49:09.459Z,11.47
2018-05-24T20:51:36.228Z,11.73
2018-05-24T20:54:02.953Z,11.43
2018-05-24T20:56:29.684Z,12.33
2018-05-24T20:58:56.446Z,22.97
2018-05-24T21:01:23.841Z,13.77
2018-05-24T21:03:50.578Z,16.50
2018-05-24T21:06:17.324Z,12.60
2018-05-24T21:08:44.132Z,12.00
2018-05-24T21:11:10.857Z,12.30
2018-05-24T21:13:37.651Z,12.37
2018-05-24T21:16:04.384Z,12.50
2018-05-24T21:18:31.195Z,12.50
2018-05-24T21:20:58.032Z,12.00
2018-05-24T21:23:24.778Z,16.27
2018-05-24T21:25:51.614Z,14.23
2018-05-24T21:28:18.347Z,13.97
2018-05-24T21:30:45.091Z,13.10
2018-05-24T21:33:11.932Z,12.80
2018-05-24T21:35:38.672Z,12.40
2018-05-24T21:38:05.400Z,11.93
2018-05-24T21:40:32.132Z,11.90
2018-05-24T21:42:58.879Z,12.37
2018-05-24T21:45:25.607Z,12.30
2018-05-24T21:47:52.339Z,12.03
2018-05-24T21:50:19.088Z,14.10
2018-05-24T21:52:45.815Z,12.70
2018-05-24T21:55:12.603Z,22.03
2018-05-24T21:57:39.347Z,16.10
2018-05-24T22:00:06.077Z,12.80
2018-05-24T22:02:32.811Z,11.00
2018-05-24T22:04:59.547Z,11.73
2018-05-24T22:07:26.289Z,12.67
2018-05-24T22:09:53.755Z,11.35
2018-05-24T22:12:20.493Z,11.97
2018-05-24T22:14:47.243Z,10.83
2018-05-24T22:17:13.980Z,11.00
2018-05-24T22:19:40.735Z,10.80
2018-05-24T22:22:07.551Z,11.30
2018-05-24T22:24:34.308Z,11.30
2018-05-24T22:27:01.057Z,10.97
2018-05-24T22:29:27.894Z,10.40
2018-05-24T22:31:54.752Z,10.27
2018-05-24T22:34:21.492Z,9.23
2018-05-24T22:36:48.319Z,11.07
2018-05-24T22:39:15.045Z,10.50
2018-05-24T22:41:41.779Z,10.27
2018-05-24T22:44:08.536Z,9.70
2018-05-24T22:46:35.268Z,10.87
2018-05-24T22:49:02.012Z,10.43
2018-05-24T22:51:28.742Z,9.90
2018-05-24T22:53:55.491Z,9.50
2018-05-24T22:56:22.226Z,10.77
2018-05-24T22:58:48.956Z,10.40
2018-05-24T23:01:15.687Z,10.17
2018-05-24T23:03:42.425Z,11.27
2018-05-24T23:06:09.153Z,11.13
2018-05-24T23:08:35.875Z,11.10
2018-05-24T23:11:02.679Z,10.50
2018-05-24T23:13:29.411Z,11.00
2018-05-24T23:15:56.151Z,10.50
2018-05-24T23:18:22.893Z,9.73
2018-05-24T23:20:49.617Z,11.50
2018-05-24T23:23:16.343Z,10.03
2018-05-24T23:25:43.107Z,9.70
2018-05-24T23:28:09.833Z,10.70
2018-05-24T23:30:36.595Z,11.03
2018-05-24T23:33:03.330Z,10.30
2018-05-24T23:35:30.061Z,10.40
2018-05-24T23:37:56.784Z,11.37
2018-05-24T23:40:23.524Z,10.30
2018-05-24T23:42:50.246Z,11.23
2018-05-24T23:45:16.966Z,11.10
2018-05-24T23:47:43.708Z,11.47
2018-05-24T23:50:10.515Z,11.10
2018-05-24T23:52:37.236Z,11.30
2018-05-24T23:55:04.000Z,11.00
2018-05-24T23:57:30.724Z,11.10
2018-05-24T23:59:57.498Z,10.40
